sensor_id;sensor_type;location;lat;lon;timestamp;P1;durP1;ratioP1;P2;durP2;ratioP2
71003;SDS011;59025;42.050;-8.660;2022-07-17T00:00:42;15.50;;;6.80;;
71003;SDS011;59025;42.050;-8.660;2022-07-17T00:03:10;13.77;;;7.00;;
71003;SDS011;59025;42.050;-8.660;2022-07-17T00:05:38;15.63;;;7.75;;
71003;SDS011;59025;42.050;-8.660;2022-07-17T00:08:06;17.73;;;7.70;;
71003;SDS011;59025;42.050;-8.660;2022-07-17T00:10:36;15.82;;;7.47;;
71003;SDS011;59025;42.050;-8.660;2022-07-17T00:13:05;15.03;;;7.20;;
71003;SDS011;59025;42.050;-8.660;2022-07-17T00:15:33;13.30;;;7.38;;
71003;SDS011;59025;42.050;-8.660;2022-07-17T00:18:01;14.73;;;7.75;;
71003;SDS011;59025;42.050;-8.660;2022-07-17T00:20:29;14.10;;;7.50;;
71003;SDS011;59025;42.050;-8.660;2022-07-17T00:22:57;14.90;;;8.82;;
71003;SDS011;59025;42.050;-8.660;2022-07-17T00:25:24;12.23;;;7.47;;
71003;SDS011;59025;42.050;-8.660;2022-07-17T00:27:53;17.40;;;7.78;;
71003;SDS011;59025;42.050;-8.660;2022-07-17T00:30:21;15.07;;;8.38;;
71003;SDS011;59025;42.050;-8.660;2022-07-17T00:32:49;15.93;;;8.60;;
71003;SDS011;59025;42.050;-8.660;2022-07-17T00:35:16;17.65;;;8.85;;
71003;SDS011;59025;42.050;-8.660;2022-07-17T00:37:44;13.77;;;8.57;;
71003;SDS011;59025;42.050;-8.660;2022-07-17T00:40:14;13.27;;;8.27;;
71003;SDS011;59025;42.050;-8.660;2022-07-17T00:42:44;18.17;;;8.10;;
71003;SDS011;59025;42.050;-8.660;2022-07-17T00:45:13;15.73;;;8.77;;
71003;SDS011;59025;42.050;-8.660;2022-07-17T00:47:52;13.07;;;8.23;;
71003;SDS011;59025;42.050;-8.660;2022-07-17T00:50:21;17.97;;;8.47;;
71003;SDS011;59025;42.050;-8.660;2022-07-17T00:52:50;12.77;;;7.55;;
71003;SDS011;59025;42.050;-8.660;2022-07-17T00:55:18;12.38;;;7.32;;
71003;SDS011;59025;42.050;-8.660;2022-07-17T00:57:46;15.10;;;7.85;;
71003;SDS011;59025;42.050;-8.660;2022-07-17T01:00:16;12.98;;;7.53;;
71003;SDS011;59025;42.050;-8.660;2022-07-17T01:02:46;12.80;;;7.63;;
71003;SDS011;59025;42.050;-8.660;2022-07-17T01:05:15;15.35;;;7.63;;
71003;SDS011;59025;42.050;-8.660;2022-07-17T01:07:44;13.90;;;7.55;;
71003;SDS011;59025;42.050;-8.660;2022-07-17T01:10:11;13.23;;;7.22;;
71003;SDS011;59025;42.050;-8.660;2022-07-17T01:12:41;15.60;;;7.43;;
71003;SDS011;59025;42.050;-8.660;2022-07-17T01:15:10;13.30;;;7.97;;
71003;SDS011;59025;42.050;-8.660;2022-07-17T01:17:39;14.75;;;7.07;;
71003;SDS011;59025;42.050;-8.660;2022-07-17T01:20:08;15.18;;;7.68;;
71003;SDS011;59025;42.050;-8.660;2022-07-17T01:22:41;15.90;;;7.88;;
71003;SDS011;59025;42.050;-8.660;2022-07-17T01:25:09;16.75;;;8.27;;
71003;SDS011;59025;42.050;-8.660;2022-07-17T01:27:37;15.80;;;8.20;;
71003;SDS011;59025;42.050;-8.660;2022-07-17T01:30:05;13.73;;;8.00;;
71003;SDS011;59025;42.050;-8.660;2022-07-17T01:32:33;14.75;;;7.70;;
71003;SDS011;59025;42.050;-8.660;2022-07-17T01:35:01;16.98;;;7.93;;
71003;SDS011;59025;42.050;-8.660;2022-07-17T01:37:29;13.30;;;7.68;;
71003;SDS011;59025;42.050;-8.660;2022-07-17T01:39:58;16.80;;;8.37;;
71003;SDS011;59025;42.050;-8.660;2022-07-17T01:42:26;15.82;;;8.18;;
71003;SDS011;59025;42.050;-8.660;2022-07-17T01:44:54;17.25;;;7.82;;
71003;SDS011;59025;42.050;-8.660;2022-07-17T01:47:23;14.15;;;8.05;;
71003;SDS011;59025;42.050;-8.660;2022-07-17T01:49:51;14.88;;;7.93;;
71003;SDS011;59025;42.050;-8.660;2022-07-17T01:52:19;16.57;;;7.77;;
71003;SDS011;59025;42.050;-8.660;2022-07-17T01:54:47;15.23;;;7.90;;
71003;SDS011;59025;42.050;-8.660;2022-07-17T01:57:16;14.80;;;8.10;;
71003;SDS011;59025;42.050;-8.660;2022-07-17T01:59:44;14.40;;;7.57;;
71003;SDS011;59025;42.050;-8.660;2022-07-17T02:02:11;13.32;;;7.88;;
71003;SDS011;59025;42.050;-8.660;2022-07-17T02:04:40;12.90;;;7.78;;
71003;SDS011;59025;42.050;-8.660;2022-07-17T02:07:08;12.70;;;7.23;;
71003;SDS011;59025;42.050;-8.660;2022-07-17T02:09:37;11.98;;;7.68;;
71003;SDS011;59025;42.050;-8.660;2022-07-17T02:12:05;13.20;;;7.78;;
71003;SDS011;59025;42.050;-8.660;2022-07-17T02:14:34;15.95;;;7.78;;
71003;SDS011;59025;42.050;-8.660;2022-07-17T02:17:02;12.10;;;7.88;;
71003;SDS011;59025;42.050;-8.660;2022-07-17T02:19:30;14.57;;;7.77;;
71003;SDS011;59025;42.050;-8.660;2022-07-17T02:21:57;15.00;;;8.40;;
71003;SDS011;59025;42.050;-8.660;2022-07-17T02:24:25;13.40;;;8.07;;
71003;SDS011;59025;42.050;-8.660;2022-07-17T02:26:52;15.20;;;8.18;;
71003;SDS011;59025;42.050;-8.660;2022-07-17T02:29:20;14.45;;;8.15;;
71003;SDS011;59025;42.050;-8.660;2022-07-17T02:31:49;13.50;;;7.77;;
71003;SDS011;59025;42.050;-8.660;2022-07-17T02:34:16;14.38;;;8.48;;
71003;SDS011;59025;42.050;-8.660;2022-07-17T02:36:44;16.05;;;8.95;;
71003;SDS011;59025;42.050;-8.660;2022-07-17T02:39:11;14.60;;;8.55;;
71003;SDS011;59025;42.050;-8.660;2022-07-17T02:41:39;15.02;;;8.70;;
71003;SDS011;59025;42.050;-8.660;2022-07-17T02:44:06;15.10;;;9.03;;
71003;SDS011;59025;42.050;-8.660;2022-07-17T02:46:33;17.42;;;8.70;;
71003;SDS011;59025;42.050;-8.660;2022-07-17T02:49:02;18.05;;;9.07;;
71003;SDS011;59025;42.050;-8.660;2022-07-17T02:51:30;14.30;;;8.57;;
71003;SDS011;59025;42.050;-8.660;2022-07-17T02:53:57;16.73;;;9.00;;
71003;SDS011;59025;42.050;-8.660;2022-07-17T02:56:25;17.13;;;9.50;;
71003;SDS011;59025;42.050;-8.660;2022-07-17T02:58:52;17.65;;;9.02;;
71003;SDS011;59025;42.050;-8.660;2022-07-17T03:01:19;18.05;;;9.07;;
71003;SDS011;59025;42.050;-8.660;2022-07-17T03:03:47;15.55;;;8.63;;
71003;SDS011;59025;42.050;-8.660;2022-07-17T03:06:16;16.13;;;8.98;;
71003;SDS011;59025;42.050;-8.660;2022-07-17T03:08:43;14.73;;;8.50;;
71003;SDS011;59025;42.050;-8.660;2022-07-17T03:11:11;16.27;;;8.98;;
71003;SDS011;59025;42.050;-8.660;2022-07-17T03:13:38;16.80;;;9.75;;
71003;SDS011;59025;42.050;-8.660;2022-07-17T03:16:05;16.38;;;9.07;;
71003;SDS011;59025;42.050;-8.660;2022-07-17T03:18:33;16.40;;;8.85;;
71003;SDS011;59025;42.050;-8.660;2022-07-17T03:21:00;17.23;;;9.77;;
71003;SDS011;59025;42.050;-8.660;2022-07-17T03:23:30;16.65;;;10.00;;
71003;SDS011;59025;42.050;-8.660;2022-07-17T03:25:57;15.95;;;9.50;;
71003;SDS011;59025;42.050;-8.660;2022-07-17T03:28:25;16.17;;;9.32;;
71003;SDS011;59025;42.050;-8.660;2022-07-17T03:30:52;15.40;;;9.35;;
71003;SDS011;59025;42.050;-8.660;2022-07-17T03:33:19;16.10;;;8.70;;
71003;SDS011;59025;42.050;-8.660;2022-07-17T03:35:47;15.07;;;10.30;;
71003;SDS011;59025;42.050;-8.660;2022-07-17T03:38:14;15.43;;;9.15;;
71003;SDS011;59025;42.050;-8.660;2022-07-17T03:40:43;17.33;;;9.00;;
71003;SDS011;59025;42.050;-8.660;2022-07-17T03:43:11;17.73;;;10.38;;
71003;SDS011;59025;42.050;-8.660;2022-07-17T03:45:39;15.03;;;8.93;;
71003;SDS011;59025;42.050;-8.660;2022-07-17T03:48:06;22.20;;;9.88;;
71003;SDS011;59025;42.050;-8.660;2022-07-17T03:50:34;15.48;;;9.63;;
71003;SDS011;59025;42.050;-8.660;2022-07-17T03:53:01;20.42;;;9.93;;
71003;SDS011;59025;42.050;-8.660;2022-07-17T03:55:29;18.95;;;9.45;;
71003;SDS011;59025;42.050;-8.660;2022-07-17T03:57:58;19.23;;;9.33;;
71003;SDS011;59025;42.050;-8.660;2022-07-17T04:00:25;18.45;;;9.02;;
71003;SDS011;59025;42.050;-8.660;2022-07-17T04:02:53;20.45;;;8.95;;
71003;SDS011;59025;42.050;-8.660;2022-07-17T04:05:20;14.48;;;8.43;;
71003;SDS011;59025;42.050;-8.660;2022-07-17T04:07:48;16.30;;;9.32;;
71003;SDS011;59025;42.050;-8.660;2022-07-17T04:10:15;17.20;;;9.40;;
71003;SDS011;59025;42.050;-8.660;2022-07-17T04:12:43;15.27;;;9.13;;
71003;SDS011;59025;42.050;-8.660;2022-07-17T04:15:12;14.15;;;8.45;;
71003;SDS011;59025;42.050;-8.660;2022-07-17T04:17:59;21.23;;;9.52;;
71003;SDS011;59025;42.050;-8.660;2022-07-17T04:20:26;17.75;;;9.68;;
71003;SDS011;59025;42.050;-8.660;2022-07-17T04:22:54;19.17;;;9.30;;
71003;SDS011;59025;42.050;-8.660;2022-07-17T04:25:23;18.40;;;9.05;;
71003;SDS011;59025;42.050;-8.660;2022-07-17T04:27:50;14.85;;;8.25;;
71003;SDS011;59025;42.050;-8.660;2022-07-17T04:30:19;16.15;;;9.43;;
71003;SDS011;59025;42.050;-8.660;2022-07-17T04:32:46;17.80;;;9.15;;
71003;SDS011;59025;42.050;-8.660;2022-07-17T04:35:14;16.07;;;9.30;;
71003;SDS011;59025;42.050;-8.660;2022-07-17T04:37:41;19.77;;;9.68;;
71003;SDS011;59025;42.050;-8.660;2022-07-17T04:40:09;18.35;;;9.50;;
71003;SDS011;59025;42.050;-8.660;2022-07-17T04:42:37;18.67;;;9.68;;
71003;SDS011;59025;42.050;-8.660;2022-07-17T04:45:05;18.15;;;9.32;;
71003;SDS011;59025;42.050;-8.660;2022-07-17T04:47:35;15.53;;;9.33;;
71003;SDS011;59025;42.050;-8.660;2022-07-17T04:50:03;16.15;;;9.63;;
71003;SDS011;59025;42.050;-8.660;2022-07-17T04:52:31;19.25;;;9.32;;
71003;SDS011;59025;42.050;-8.660;2022-07-17T04:54:58;16.02;;;9.80;;
71003;SDS011;59025;42.050;-8.660;2022-07-17T04:57:26;16.73;;;9.55;;
71003;SDS011;59025;42.050;-8.660;2022-07-17T04:59:53;15.10;;;9.20;;
71003;SDS011;59025;42.050;-8.660;2022-07-17T05:02:21;16.52;;;9.68;;
71003;SDS011;59025;42.050;-8.660;2022-07-17T05:04:50;18.30;;;10.35;;
71003;SDS011;59025;42.050;-8.660;2022-07-17T05:07:17;18.83;;;9.95;;
71003;SDS011;59025;42.050;-8.660;2022-07-17T05:09:45;16.27;;;9.68;;
71003;SDS011;59025;42.050;-8.660;2022-07-17T05:12:12;16.07;;;9.73;;
71003;SDS011;59025;42.050;-8.660;2022-07-17T05:14:39;13.77;;;8.77;;
71003;SDS011;59025;42.050;-8.660;2022-07-17T05:17:07;15.90;;;9.60;;
71003;SDS011;59025;42.050;-8.660;2022-07-17T05:19:34;15.95;;;9.45;;
71003;SDS011;59025;42.050;-8.660;2022-07-17T05:22:04;17.65;;;9.48;;
71003;SDS011;59025;42.050;-8.660;2022-07-17T05:24:31;19.10;;;10.00;;
71003;SDS011;59025;42.050;-8.660;2022-07-17T05:26:59;17.45;;;10.38;;
71003;SDS011;59025;42.050;-8.660;2022-07-17T05:29:27;16.98;;;10.18;;
71003;SDS011;59025;42.050;-8.660;2022-07-17T05:31:55;19.63;;;10.43;;
71003;SDS011;59025;42.050;-8.660;2022-07-17T05:34:22;16.50;;;10.07;;
71003;SDS011;59025;42.050;-8.660;2022-07-17T05:36:50;20.27;;;10.60;;
71003;SDS011;59025;42.050;-8.660;2022-07-17T05:39:18;16.20;;;10.10;;
71003;SDS011;59025;42.050;-8.660;2022-07-17T05:41:46;15.55;;;10.15;;
71003;SDS011;59025;42.050;-8.660;2022-07-17T05:44:13;18.15;;;10.43;;
71003;SDS011;59025;42.050;-8.660;2022-07-17T05:46:41;18.20;;;10.98;;
71003;SDS011;59025;42.050;-8.660;2022-07-17T05:49:08;15.77;;;10.23;;
71003;SDS011;59025;42.050;-8.660;2022-07-17T05:51:36;17.73;;;10.23;;
71003;SDS011;59025;42.050;-8.660;2022-07-17T05:54:03;18.27;;;11.07;;
71003;SDS011;59025;42.050;-8.660;2022-07-17T05:56:32;16.23;;;10.25;;
71003;SDS011;59025;42.050;-8.660;2022-07-17T05:58:59;17.48;;;9.88;;
71003;SDS011;59025;42.050;-8.660;2022-07-17T06:01:27;17.43;;;10.13;;
71003;SDS011;59025;42.050;-8.660;2022-07-17T06:03:54;18.10;;;10.40;;
71003;SDS011;59025;42.050;-8.660;2022-07-17T06:06:22;17.40;;;9.80;;
71003;SDS011;59025;42.050;-8.660;2022-07-17T06:08:49;22.42;;;11.02;;
71003;SDS011;59025;42.050;-8.660;2022-07-17T06:11:16;18.08;;;10.23;;
71003;SDS011;59025;42.050;-8.660;2022-07-17T06:13:45;19.13;;;11.20;;
71003;SDS011;59025;42.050;-8.660;2022-07-17T06:16:13;18.25;;;10.40;;
71003;SDS011;59025;42.050;-8.660;2022-07-17T06:18:40;18.77;;;9.60;;
71003;SDS011;59025;42.050;-8.660;2022-07-17T06:21:08;18.25;;;10.52;;
71003;SDS011;59025;42.050;-8.660;2022-07-17T06:23:35;18.30;;;9.95;;
71003;SDS011;59025;42.050;-8.660;2022-07-17T06:26:03;21.10;;;11.83;;
71003;SDS011;59025;42.050;-8.660;2022-07-17T06:28:30;19.38;;;10.70;;
71003;SDS011;59025;42.050;-8.660;2022-07-17T06:30:59;18.73;;;10.63;;
71003;SDS011;59025;42.050;-8.660;2022-07-17T06:33:27;28.90;;;15.60;;
71003;SDS011;59025;42.050;-8.660;2022-07-17T06:35:54;22.98;;;12.55;;
71003;SDS011;59025;42.050;-8.660;2022-07-17T06:38:22;25.17;;;12.97;;
71003;SDS011;59025;42.050;-8.660;2022-07-17T06:40:49;23.65;;;12.13;;
71003;SDS011;59025;42.050;-8.660;2022-07-17T06:43:17;18.42;;;10.90;;
71003;SDS011;59025;42.050;-8.660;2022-07-17T06:45:44;17.65;;;11.05;;
71003;SDS011;59025;42.050;-8.660;2022-07-17T06:48:13;17.25;;;11.00;;
71003;SDS011;59025;42.050;-8.660;2022-07-17T06:50:40;18.10;;;11.80;;
71003;SDS011;59025;42.050;-8.660;2022-07-17T06:53:08;22.13;;;11.10;;
71003;SDS011;59025;42.050;-8.660;2022-07-17T06:55:36;16.92;;;11.63;;
71003;SDS011;59025;42.050;-8.660;2022-07-17T06:58:03;19.40;;;11.52;;
71003;SDS011;59025;42.050;-8.660;2022-07-17T07:00:31;21.98;;;11.00;;
71003;SDS011;59025;42.050;-8.660;2022-07-17T07:02:58;21.08;;;11.00;;
71003;SDS011;59025;42.050;-8.660;2022-07-17T07:05:27;17.63;;;11.20;;
71003;SDS011;59025;42.050;-8.660;2022-07-17T07:07:55;17.08;;;10.90;;
71003;SDS011;59025;42.050;-8.660;2022-07-17T07:10:22;16.13;;;10.82;;
71003;SDS011;59025;42.050;-8.660;2022-07-17T07:12:50;19.38;;;11.35;;
71003;SDS011;59025;42.050;-8.660;2022-07-17T07:15:17;18.35;;;10.50;;
71003;SDS011;59025;42.050;-8.660;2022-07-17T07:17:45;19.37;;;11.30;;
71003;SDS011;59025;42.050;-8.660;2022-07-17T07:20:13;19.80;;;11.80;;
71003;SDS011;59025;42.050;-8.660;2022-07-17T07:22:42;18.70;;;11.15;;
71003;SDS011;59025;42.050;-8.660;2022-07-17T07:25:09;18.75;;;11.10;;
71003;SDS011;59025;42.050;-8.660;2022-07-17T07:27:36;20.88;;;11.25;;
71003;SDS011;59025;42.050;-8.660;2022-07-17T07:30:04;18.60;;;10.90;;
71003;SDS011;59025;42.050;-8.660;2022-07-17T07:32:35;19.08;;;10.93;;
71003;SDS011;59025;42.050;-8.660;2022-07-17T07:35:02;20.73;;;11.15;;
71003;SDS011;59025;42.050;-8.660;2022-07-17T07:37:30;20.27;;;11.63;;
71003;SDS011;59025;42.050;-8.660;2022-07-17T07:39:59;18.00;;;10.73;;
71003;SDS011;59025;42.050;-8.660;2022-07-17T07:42:27;16.87;;;10.27;;
71003;SDS011;59025;42.050;-8.660;2022-07-17T07:44:55;16.60;;;10.60;;
71003;SDS011;59025;42.050;-8.660;2022-07-17T07:47:22;18.48;;;10.73;;
71003;SDS011;59025;42.050;-8.660;2022-07-17T07:49:50;14.40;;;10.77;;
71003;SDS011;59025;42.050;-8.660;2022-07-17T07:52:17;17.33;;;11.77;;
71003;SDS011;59025;42.050;-8.660;2022-07-17T07:54:45;15.30;;;10.80;;
71003;SDS011;59025;42.050;-8.660;2022-07-17T07:57:14;15.77;;;11.30;;
71003;SDS011;59025;42.050;-8.660;2022-07-17T07:59:41;16.05;;;10.77;;
71003;SDS011;59025;42.050;-8.660;2022-07-17T08:02:08;16.20;;;10.80;;
71003;SDS011;59025;42.050;-8.660;2022-07-17T08:04:36;17.77;;;10.90;;
71003;SDS011;59025;42.050;-8.660;2022-07-17T08:07:04;16.90;;;11.90;;
71003;SDS011;59025;42.050;-8.660;2022-07-17T08:09:31;18.02;;;12.10;;
71003;SDS011;59025;42.050;-8.660;2022-07-17T08:11:59;18.20;;;12.63;;
71003;SDS011;59025;42.050;-8.660;2022-07-17T08:14:28;16.83;;;11.43;;
71003;SDS011;59025;42.050;-8.660;2022-07-17T08:16:55;16.42;;;11.45;;
71003;SDS011;59025;42.050;-8.660;2022-07-17T08:19:23;15.53;;;10.70;;
71003;SDS011;59025;42.050;-8.660;2022-07-17T08:21:50;14.43;;;10.63;;
71003;SDS011;59025;42.050;-8.660;2022-07-17T08:24:17;16.95;;;10.32;;
71003;SDS011;59025;42.050;-8.660;2022-07-17T08:26:45;17.80;;;11.10;;
71003;SDS011;59025;42.050;-8.660;2022-07-17T08:29:12;15.02;;;10.85;;
71003;SDS011;59025;42.050;-8.660;2022-07-17T08:31:42;16.07;;;10.87;;
71003;SDS011;59025;42.050;-8.660;2022-07-17T08:34:10;16.60;;;11.00;;
71003;SDS011;59025;42.050;-8.660;2022-07-17T08:36:39;18.33;;;11.55;;
71003;SDS011;59025;42.050;-8.660;2022-07-17T08:39:07;15.60;;;10.73;;
71003;SDS011;59025;42.050;-8.660;2022-07-17T08:41:36;15.48;;;9.75;;
71003;SDS011;59025;42.050;-8.660;2022-07-17T08:44:04;13.97;;;9.90;;
71003;SDS011;59025;42.050;-8.660;2022-07-17T08:46:33;15.10;;;9.82;;
71003;SDS011;59025;42.050;-8.660;2022-07-17T08:49:04;15.93;;;10.70;;
71003;SDS011;59025;42.050;-8.660;2022-07-17T08:51:33;16.08;;;9.93;;
71003;SDS011;59025;42.050;-8.660;2022-07-17T08:54:01;15.60;;;11.05;;
71003;SDS011;59025;42.050;-8.660;2022-07-17T08:56:28;15.93;;;10.50;;
71003;SDS011;59025;42.050;-8.660;2022-07-17T08:58:56;14.20;;;9.98;;
71003;SDS011;59025;42.050;-8.660;2022-07-17T09:01:24;14.20;;;9.98;;
71003;SDS011;59025;42.050;-8.660;2022-07-17T09:03:55;10.77;;;9.05;;
71003;SDS011;59025;42.050;-8.660;2022-07-17T09:06:25;13.73;;;8.60;;
71003;SDS011;59025;42.050;-8.660;2022-07-17T09:09:00;12.43;;;8.73;;
71003;SDS011;59025;42.050;-8.660;2022-07-17T09:11:41;12.75;;;9.18;;
71003;SDS011;59025;42.050;-8.660;2022-07-17T09:14:09;12.50;;;8.77;;
71003;SDS011;59025;42.050;-8.660;2022-07-17T09:16:46;12.90;;;8.73;;
71003;SDS011;59025;42.050;-8.660;2022-07-17T09:19:23;13.48;;;9.00;;
71003;SDS011;59025;42.050;-8.660;2022-07-17T09:21:53;12.60;;;9.00;;
71003;SDS011;59025;42.050;-8.660;2022-07-17T09:24:38;12.93;;;8.88;;
71003;SDS011;59025;42.050;-8.660;2022-07-17T09:27:10;12.95;;;8.75;;
71003;SDS011;59025;42.050;-8.660;2022-07-17T09:32:23;12.15;;;7.57;;
71003;SDS011;59025;42.050;-8.660;2022-07-17T09:34:51;10.23;;;7.00;;
71003;SDS011;59025;42.050;-8.660;2022-07-17T09:37:23;9.90;;;6.75;;
71003;SDS011;59025;42.050;-8.660;2022-07-17T09:39:51;11.43;;;8.15;;
71003;SDS011;59025;42.050;-8.660;2022-07-17T09:42:25;9.00;;;6.80;;
71003;SDS011;59025;42.050;-8.660;2022-07-17T09:44:55;14.07;;;8.23;;
71003;SDS011;59025;42.050;-8.660;2022-07-17T09:47:23;10.77;;;7.80;;
71003;SDS011;59025;42.050;-8.660;2022-07-17T09:49:52;12.55;;;8.30;;
71003;SDS011;59025;42.050;-8.660;2022-07-17T09:52:20;13.27;;;7.68;;
71003;SDS011;59025;42.050;-8.660;2022-07-17T09:54:51;13.60;;;8.57;;
71003;SDS011;59025;42.050;-8.660;2022-07-17T09:57:20;15.68;;;10.75;;
71003;SDS011;59025;42.050;-8.660;2022-07-17T09:59:52;11.03;;;7.80;;
71003;SDS011;59025;42.050;-8.660;2022-07-17T10:02:21;11.55;;;8.00;;
71003;SDS011;59025;42.050;-8.660;2022-07-17T10:04:50;11.35;;;7.53;;
71003;SDS011;59025;42.050;-8.660;2022-07-17T10:07:18;11.32;;;7.05;;
71003;SDS011;59025;42.050;-8.660;2022-07-17T10:09:48;10.40;;;7.90;;
71003;SDS011;59025;42.050;-8.660;2022-07-17T10:12:16;10.03;;;7.90;;
71003;SDS011;59025;42.050;-8.660;2022-07-17T10:14:46;10.65;;;7.20;;
71003;SDS011;59025;42.050;-8.660;2022-07-17T10:17:19;11.68;;;6.25;;
71003;SDS011;59025;42.050;-8.660;2022-07-17T10:19:49;10.23;;;6.70;;
71003;SDS011;59025;42.050;-8.660;2022-07-17T10:22:19;9.23;;;6.88;;
71003;SDS011;59025;42.050;-8.660;2022-07-17T10:24:50;10.70;;;6.97;;
71003;SDS011;59025;42.050;-8.660;2022-07-17T10:27:20;8.73;;;5.82;;
71003;SDS011;59025;42.050;-8.660;2022-07-17T10:29:58;9.38;;;6.20;;
71003;SDS011;59025;42.050;-8.660;2022-07-17T10:32:27;8.73;;;6.60;;
71003;SDS011;59025;42.050;-8.660;2022-07-17T10:34:57;9.75;;;6.80;;
71003;SDS011;59025;42.050;-8.660;2022-07-17T10:37:27;7.87;;;5.90;;
71003;SDS011;59025;42.050;-8.660;2022-07-17T10:40:00;10.32;;;6.30;;
71003;SDS011;59025;42.050;-8.660;2022-07-17T10:42:46;8.80;;;6.93;;
71003;SDS011;59025;42.050;-8.660;2022-07-17T10:45:19;9.77;;;7.07;;
71003;SDS011;59025;42.050;-8.660;2022-07-17T10:47:50;10.93;;;7.20;;
71003;SDS011;59025;42.050;-8.660;2022-07-17T10:50:21;10.83;;;7.43;;
71003;SDS011;59025;42.050;-8.660;2022-07-17T10:55:43;13.90;;;8.00;;
71003;SDS011;59025;42.050;-8.660;2022-07-17T10:58:16;11.38;;;7.45;;
71003;SDS011;59025;42.050;-8.660;2022-07-17T11:00:55;9.40;;;7.45;;
71003;SDS011;59025;42.050;-8.660;2022-07-17T11:03:26;10.47;;;6.90;;
71003;SDS011;59025;42.050;-8.660;2022-07-17T11:05:54;10.65;;;6.85;;
71003;SDS011;59025;42.050;-8.660;2022-07-17T11:08:21;11.65;;;7.75;;
71003;SDS011;59025;42.050;-8.660;2022-07-17T11:10:50;10.32;;;8.20;;
71003;SDS011;59025;42.050;-8.660;2022-07-17T11:13:18;11.32;;;7.05;;
71003;SDS011;59025;42.050;-8.660;2022-07-17T11:15:47;10.70;;;7.70;;
71003;SDS011;59025;42.050;-8.660;2022-07-17T11:18:15;9.98;;;7.57;;
71003;SDS011;59025;42.050;-8.660;2022-07-17T11:20:48;10.60;;;7.10;;
71003;SDS011;59025;42.050;-8.660;2022-07-17T11:23:17;12.20;;;7.63;;
71003;SDS011;59025;42.050;-8.660;2022-07-17T11:25:56;10.35;;;7.45;;
71003;SDS011;59025;42.050;-8.660;2022-07-17T11:28:33;9.87;;;6.87;;
71003;SDS011;59025;42.050;-8.660;2022-07-17T11:31:05;10.20;;;7.45;;
71003;SDS011;59025;42.050;-8.660;2022-07-17T11:33:47;11.13;;;8.15;;
71003;SDS011;59025;42.050;-8.660;2022-07-17T11:36:19;10.73;;;7.70;;
71003;SDS011;59025;42.050;-8.660;2022-07-17T11:38:48;10.63;;;7.45;;
71003;SDS011;59025;42.050;-8.660;2022-07-17T11:41:17;10.27;;;6.73;;
71003;SDS011;59025;42.050;-8.660;2022-07-17T11:43:45;11.00;;;7.05;;
71003;SDS011;59025;42.050;-8.660;2022-07-17T11:46:14;10.43;;;6.72;;
71003;SDS011;59025;42.050;-8.660;2022-07-17T11:48:42;7.97;;;6.70;;
71003;SDS011;59025;42.050;-8.660;2022-07-17T11:51:10;9.82;;;6.28;;
71003;SDS011;59025;42.050;-8.660;2022-07-17T11:53:38;9.57;;;6.03;;
71003;SDS011;59025;42.050;-8.660;2022-07-17T11:56:06;8.52;;;5.93;;
71003;SDS011;59025;42.050;-8.660;2022-07-17T11:58:43;7.80;;;5.78;;
71003;SDS011;59025;42.050;-8.660;2022-07-17T12:01:12;9.98;;;6.93;;
71003;SDS011;59025;42.050;-8.660;2022-07-17T12:03:40;10.90;;;6.30;;
71003;SDS011;59025;42.050;-8.660;2022-07-17T12:06:08;9.03;;;6.20;;
71003;SDS011;59025;42.050;-8.660;2022-07-17T12:08:35;10.10;;;7.60;;
71003;SDS011;59025;42.050;-8.660;2022-07-17T12:11:04;9.18;;;6.55;;
71003;SDS011;59025;42.050;-8.660;2022-07-17T12:13:40;9.70;;;6.50;;
71003;SDS011;59025;42.050;-8.660;2022-07-17T12:16:18;9.52;;;6.22;;
71003;SDS011;59025;42.050;-8.660;2022-07-17T12:18:57;9.80;;;6.70;;
71003;SDS011;59025;42.050;-8.660;2022-07-17T12:21:28;10.73;;;7.40;;
71003;SDS011;59025;42.050;-8.660;2022-07-17T12:23:57;8.57;;;6.63;;
71003;SDS011;59025;42.050;-8.660;2022-07-17T12:26:27;9.85;;;7.10;;
71003;SDS011;59025;42.050;-8.660;2022-07-17T12:28:57;10.65;;;6.65;;
71003;SDS011;59025;42.050;-8.660;2022-07-17T12:31:24;10.37;;;6.70;;
71003;SDS011;59025;42.050;-8.660;2022-07-17T12:33:52;9.68;;;6.93;;
71003;SDS011;59025;42.050;-8.660;2022-07-17T12:36:21;11.20;;;7.95;;
71003;SDS011;59025;42.050;-8.660;2022-07-17T12:38:49;10.60;;;8.05;;
71003;SDS011;59025;42.050;-8.660;2022-07-17T12:41:16;8.88;;;7.20;;
71003;SDS011;59025;42.050;-8.660;2022-07-17T12:43:44;10.53;;;7.50;;
71003;SDS011;59025;42.050;-8.660;2022-07-17T12:46:13;9.55;;;6.93;;
71003;SDS011;59025;42.050;-8.660;2022-07-17T12:48:42;11.70;;;7.20;;
71003;SDS011;59025;42.050;-8.660;2022-07-17T12:51:11;8.95;;;6.20;;
71003;SDS011;59025;42.050;-8.660;2022-07-17T12:53:40;9.38;;;5.30;;
71003;SDS011;59025;42.050;-8.660;2022-07-17T12:56:08;7.50;;;4.77;;
71003;SDS011;59025;42.050;-8.660;2022-07-17T12:58:35;7.97;;;4.55;;
71003;SDS011;59025;42.050;-8.660;2022-07-17T13:01:04;6.32;;;4.15;;
71003;SDS011;59025;42.050;-8.660;2022-07-17T13:03:33;8.15;;;4.40;;
71003;SDS011;59025;42.050;-8.660;2022-07-17T13:06:01;7.95;;;4.18;;
71003;SDS011;59025;42.050;-8.660;2022-07-17T13:08:29;7.20;;;4.20;;
71003;SDS011;59025;42.050;-8.660;2022-07-17T13:10:57;6.65;;;4.05;;
71003;SDS011;59025;42.050;-8.660;2022-07-17T13:13:25;8.18;;;4.00;;
71003;SDS011;59025;42.050;-8.660;2022-07-17T13:15:52;6.10;;;3.72;;
71003;SDS011;59025;42.050;-8.660;2022-07-17T13:18:19;8.45;;;3.88;;
71003;SDS011;59025;42.050;-8.660;2022-07-17T13:20:48;7.50;;;3.90;;
71003;SDS011;59025;42.050;-8.660;2022-07-17T13:23:16;6.43;;;3.80;;
71003;SDS011;59025;42.050;-8.660;2022-07-17T13:25:44;6.38;;;3.60;;
71003;SDS011;59025;42.050;-8.660;2022-07-17T13:28:12;6.75;;;3.53;;
71003;SDS011;59025;42.050;-8.660;2022-07-17T13:30:39;7.82;;;3.70;;
71003;SDS011;59025;42.050;-8.660;2022-07-17T13:33:07;6.20;;;3.70;;
71003;SDS011;59025;42.050;-8.660;2022-07-17T13:35:34;5.35;;;3.38;;
71003;SDS011;59025;42.050;-8.660;2022-07-17T13:38:03;12.15;;;3.30;;
71003;SDS011;59025;42.050;-8.660;2022-07-17T13:40:33;6.40;;;3.10;;
71003;SDS011;59025;42.050;-8.660;2022-07-17T13:43:00;6.72;;;3.30;;
71003;SDS011;59025;42.050;-8.660;2022-07-17T13:45:28;7.20;;;3.50;;
71003;SDS011;59025;42.050;-8.660;2022-07-17T13:47:56;7.45;;;3.20;;
71003;SDS011;59025;42.050;-8.660;2022-07-17T13:50:24;6.57;;;3.10;;
71003;SDS011;59025;42.050;-8.660;2022-07-17T13:52:52;5.55;;;3.30;;
71003;SDS011;59025;42.050;-8.660;2022-07-17T13:55:21;7.20;;;3.20;;
71003;SDS011;59025;42.050;-8.660;2022-07-17T13:57:48;8.37;;;3.40;;
71003;SDS011;59025;42.050;-8.660;2022-07-17T14:00:16;7.75;;;3.40;;
71003;SDS011;59025;42.050;-8.660;2022-07-17T14:02:43;5.60;;;2.90;;
71003;SDS011;59025;42.050;-8.660;2022-07-17T14:05:11;9.30;;;3.72;;
71003;SDS011;59025;42.050;-8.660;2022-07-17T14:07:39;6.35;;;3.25;;
71003;SDS011;59025;42.050;-8.660;2022-07-17T14:10:06;6.50;;;3.30;;
71003;SDS011;59025;42.050;-8.660;2022-07-17T14:12:36;7.18;;;3.30;;
71003;SDS011;59025;42.050;-8.660;2022-07-17T14:15:04;7.38;;;3.40;;
71003;SDS011;59025;42.050;-8.660;2022-07-17T14:17:33;7.88;;;3.42;;
71003;SDS011;59025;42.050;-8.660;2022-07-17T14:20:00;7.30;;;3.13;;
71003;SDS011;59025;42.050;-8.660;2022-07-17T14:22:28;5.20;;;2.90;;
71003;SDS011;59025;42.050;-8.660;2022-07-17T14:24:55;5.65;;;2.90;;
71003;SDS011;59025;42.050;-8.660;2022-07-17T14:27:23;7.13;;;3.00;;
71003;SDS011;59025;42.050;-8.660;2022-07-17T14:29:52;6.00;;;3.20;;
71003;SDS011;59025;42.050;-8.660;2022-07-17T14:32:19;5.55;;;2.97;;
71003;SDS011;59025;42.050;-8.660;2022-07-17T14:34:46;6.50;;;3.10;;